Time;durP1;ratioP1;P1;durP2;ratioP2;P2;SDS_P1;SDS_P2;PMS_P1;PMS_P2;Temp;Humidity;BMP_temperature;BMP_pressure;BME280_temperature;BME280_humidity;BME280_pressure;Samples;Min_cycle;Max_cycle;Signal;HPM_P1;HPM_P2
2022/09/30 00:04:34;;;;;;;0.65;0.43;;;;;;;5.10;100.00;100992.41;10416696;28;20512;-77
2022/09/30 00:09:36;;;;;;;3.97;1.55;;;;;;;5.05;100.00;100993.06;10394761;28;20042;-77
2022/09/30 00:14:37;;;;;;;0.20;0.20;;;;;;;4.94;100.00;100999.31;10411957;28;20053;-77
2022/09/30 00:19:39;;;;;;;0.25;0.25;;;;;;;4.95;100.00;101006.19;10411656;28;20041;-77
2022/09/30 00:24:41;;;;;;;0.17;0.17;;;;;;;4.94;100.00;101004.41;10435055;28;20071;-77
2022/09/30 00:29:43;;;;;;;0.13;0.13;;;;;;;4.79;100.00;100999.41;10443056;28;20087;-77
2022/09/30 00:34:45;;;;;;;0.30;0.25;;;;;;;4.81;100.00;101002.03;10412891;28;20079;-78
2022/09/30 00:39:48;;;;;;;0.20;0.20;;;;;;;4.87;100.00;101003.22;10411632;28;20140;-78
2022/09/30 00:45:02;;;;;;;0.32;0.20;;;;;;;4.94;100.00;101009.53;10401993;28;20394;-77
2022/09/30 00:50:09;;;;;;;0.15;0.05;;;;;;;4.78;100.00;101007.00;10408655;28;20056;-77
2022/09/30 00:55:25;;;;;;;0.00;0.00;;;;;;;4.43;100.00;101004.34;10411339;28;20049;-78
2022/09/30 01:00:27;;;;;;;0.20;0.20;;;;;;;4.63;100.00;101018.16;10410857;28;20041;-77
2022/09/30 01:05:31;;;;;;;0.00;0.00;;;;;;;4.53;100.00;101021.03;10413836;28;20053;-77
2022/09/30 01:10:37;;;;;;;0.38;0.28;;;;;;;4.43;100.00;101015.44;10393496;28;20045;-77
2022/09/30 01:16:14;;;;;;;0.65;0.40;;;;;;;4.65;100.00;101013.13;10411277;28;20037;-77
2022/09/30 01:21:34;;;;;;;0.05;0.05;;;;;;;4.58;100.00;101019.56;10409885;28;20439;-77
2022/09/30 01:27:01;;;;;;;2.90;1.40;;;;;;;4.67;100.00;101014.97;10398249;28;20107;-78
2022/09/30 01:32:12;;;;;;;0.30;0.22;;;;;;;4.56;100.00;101019.50;10427220;28;20152;-77
2022/09/30 01:37:41;;;;;;;2.22;0.55;;;;;;;4.42;100.00;101023.91;10417262;28;20040;-77
2022/09/30 01:43:12;;;;;;;0.17;0.15;;;;;;;3.80;100.00;101030.78;10419686;28;20092;-77
2022/09/30 01:48:21;;;;;;;1.25;0.50;;;;;;;3.53;100.00;101040.31;10399402;28;20077;-77
2022/09/30 01:53:45;;;;;;;0.20;0.13;;;;;;;3.84;100.00;101047.13;10418678;28;20038;-77
2022/09/30 01:59:03;;;;;;;0.28;0.28;;;;;;;3.70;100.00;101048.88;10421941;28;20096;-76
2022/09/30 02:04:20;;;;;;;0.70;0.50;;;;;;;3.99;100.00;101049.63;10419142;28;20077;-78
2022/09/30 02:09:28;;;;;;;0.35;0.30;;;;;;;3.85;100.00;101042.88;10416678;28;20550;-78
2022/09/30 02:14:50;;;;;;;0.30;0.30;;;;;;;4.00;100.00;101046.28;10413496;28;20144;-78
2022/09/30 02:20:31;;;;;;;0.40;0.22;;;;;;;4.07;100.00;101048.38;10417034;28;20033;-77
2022/09/30 02:25:41;;;;;;;0.15;0.15;;;;;;;4.17;100.00;101047.19;10416132;28;20052;-77
2022/09/30 02:30:48;;;;;;;0.25;0.25;;;;;;;4.13;100.00;101041.06;10416466;28;20041;-78
2022/09/30 02:36:02;;;;;;;0.35;0.22;;;;;;;4.02;100.00;101039.59;10416788;28;20103;-78
2022/09/30 02:41:10;;;;;;;0.75;0.63;;;;;;;3.93;100.00;101041.66;10398515;28;20034;-77
2022/09/30 02:46:31;;;;;;;0.60;0.60;;;;;;;4.18;100.00;101053.19;10416071;28;20038;-77
2022/09/30 02:51:44;;;;;;;;;;;;;;;3.87;100.00;101046.41;10419031;28;20041;-78
2022/09/30 02:56:57;;;;;;;1.15;1.02;;;;;;;3.84;100.00;101043.69;10414526;28;20048;-77
2022/09/30 03:01:58;;;;;;;0.28;0.20;;;;;;;3.51;100.00;101049.50;10415479;28;20124;-77
2022/09/30 03:07:00;;;;;;;1.42;1.33;;;;;;;3.54;100.00;101059.03;10391178;28;20053;-77
2022/09/30 03:12:33;;;;;;;0.82;0.63;;;;;;;3.50;100.00;101060.50;10397251;28;20042;-78
2022/09/30 03:17:45;;;;;;;0.50;0.45;;;;;;;3.56;100.00;101067.63;10396660;28;20596;-78
2022/09/30 03:23:18;;;;;;;0.20;0.20;;;;;;;3.59;100.00;101060.16;10414374;28;20042;-78
2022/09/30 03:28:28;;;;;;;1.13;1.02;;;;;;;3.61;100.00;101072.19;10412932;28;20133;-78
2022/09/30 03:33:54;;;;;;;0.68;0.45;;;;;;;3.49;100.00;101076.59;10413090;28;20123;-78
2022/09/30 03:39:15;;;;;;;0.40;0.40;;;;;;;3.61;100.00;101068.78;10405945;28;20041;-77
2022/09/30 03:44:39;;;;;;;0.55;0.47;;;;;;;3.49;100.00;101067.28;10422196;28;20467;-78
2022/09/30 03:49:58;;;;;;;0.30;0.20;;;;;;;3.54;100.00;101071.75;10396174;28;20065;-77
2022/09/30 03:55:02;;;;;;;0.75;0.35;;;;;;;3.25;100.00;101076.03;10444641;28;20041;-77
2022/09/30 04:00:06;;;;;;;0.43;0.30;;;;;;;3.23;100.00;101092.91;10423428;28;20033;-77
2022/09/30 04:05:07;;;;;;;0.68;0.20;;;;;;;3.21;100.00;101097.03;10413188;28;20112;-78
2022/09/30 04:10:10;;;;;;;0.47;0.25;;;;;;;3.31;100.00;101104.44;10395079;28;20052;-78
2022/09/30 04:15:11;;;;;;;0.60;0.60;;;;;;;3.31;100.00;101110.38;10413191;28;20128;-78
2022/09/30 04:20:13;;;;;;;0.52;0.52;;;;;;;3.27;100.00;101103.38;10411448;28;20534;-78
2022/09/30 04:25:15;;;;;;;0.55;0.43;;;;;;;3.20;100.00;101101.25;10413086;28;20079;-77
2022/09/30 04:30:17;;;;;;;0.10;0.10;;;;;;;3.36;100.00;101127.59;10412001;28;20092;-78
2022/09/30 04:35:28;;;;;;;0.65;0.30;;;;;;;3.28;100.00;101119.50;10412630;28;20139;-78
2022/09/30 04:40:30;;;;;;;1.15;0.55;;;;;;;3.05;100.00;101124.13;10394102;28;20437;-77
2022/09/30 04:45:32;;;;;;;0.93;0.52;;;;;;;3.07;100.00;101145.47;10410557;28;20042;-78
2022/09/30 04:50:33;;;;;;;1.65;0.85;;;;;;;3.33;100.00;101156.31;10390873;28;20052;-78
2022/09/30 04:55:35;;;;;;;0.73;0.52;;;;;;;3.34;100.00;101150.44;10411674;28;20077;-78
2022/09/30 05:00:37;;;;;;;0.57;0.40;;;;;;;3.18;100.00;101149.50;10411524;28;20041;-77
2022/09/30 05:05:43;;;;;;;0.00;0.00;;;;;;;3.13;100.00;101161.09;10422487;28;20045;-77
2022/09/30 05:10:52;;;;;;;0.35;0.30;;;;;;;3.37;100.00;101176.09;10419643;28;20589;-77
2022/09/30 05:15:54;;;;;;;0.50;0.40;;;;;;;3.31;100.00;101165.53;10418265;28;20049;-78
2022/09/30 05:20:56;;;;;;;0.40;0.38;;;;;;;3.39;100.00;101166.00;10401714;28;20053;-78
2022/09/30 05:25:59;;;;;;;0.30;0.30;;;;;;;3.44;100.00;101164.59;10401473;28;20052;-77
2022/09/30 05:31:04;;;;;;;0.77;0.47;;;;;;;3.26;100.00;101167.81;10426092;28;20472;-77
2022/09/30 05:36:10;;;;;;;2.38;0.52;;;;;;;3.20;100.00;101167.47;10422234;28;20069;-77
2022/09/30 05:41:13;;;;;;;0.75;0.40;;;;;;;3.32;100.00;101159.63;10419529;28;20510;-77
2022/09/30 05:46:19;;;;;;;0.40;0.40;;;;;;;3.15;100.00;101164.63;10422416;28;20079;-77
2022/09/30 05:51:25;;;;;;;0.43;0.38;;;;;;;3.34;100.00;101173.34;10418777;28;20033;-77
2022/09/30 05:56:26;;;;;;;0.88;0.60;;;;;;;3.59;100.00;101182.44;10427902;28;20073;-77
2022/09/30 06:01:28;;;;;;;0.70;0.70;;;;;;;3.74;100.00;101203.75;10416773;28;20047;-77
2022/09/30 06:06:32;;;;;;;0.65;0.35;;;;;;;3.90;100.00;101202.09;10414093;28;20037;-78
2022/09/30 06:11:33;;;;;;;0.88;0.82;;;;;;;4.40;100.00;101218.47;10412172;28;20048;-78
2022/09/30 06:16:35;;;;;;;0.35;0.35;;;;;;;4.84;100.00;101224.28;10398436;28;20614;-78
2022/09/30 06:21:38;;;;;;;0.30;0.30;;;;;;;5.61;100.00;101240.22;10416691;28;20097;-77
2022/09/30 06:26:41;;;;;;;1.05;0.63;;;;;;;5.97;100.00;101241.22;10414986;28;20057;-78
2022/09/30 06:31:43;;;;;;;1.98;1.30;;;;;;;6.29;100.00;101244.50;10415870;28;20061;-78
2022/09/30 06:36:45;;;;;;;1.63;0.70;;;;;;;6.37;100.00;101246.59;10399169;28;20057;-78
2022/09/30 06:41:46;;;;;;;1.02;0.80;;;;;;;6.85;100.00;101244.59;10429978;28;20038;-78
2022/09/30 06:46:58;;;;;;;0.73;0.73;;;;;;;7.15;100.00;101242.56;10414403;28;20136;-78
2022/09/30 06:52:00;;;;;;;1.65;1.08;;;;;;;7.28;100.00;101225.19;10414301;28;20049;-78
2022/09/30 06:57:02;;;;;;;1.38;1.05;;;;;;;7.72;100.00;101220.22;10422817;28;20123;-78
2022/09/30 07:02:07;;;;;;;2.03;1.40;;;;;;;7.95;100.00;101203.25;10422535;28;20083;-77
2022/09/30 07:07:09;;;;;;;1.17;0.77;;;;;;;7.92;100.00;101204.00;10455293;28;20076;-78
2022/09/30 07:12:11;;;;;;;1.45;1.30;;;;;;;8.09;100.00;101186.72;10421982;28;20463;-78
2022/09/30 07:17:13;;;;;;;1.50;1.27;;;;;;;8.75;100.00;101177.28;10414450;28;20515;-78
2022/09/30 07:22:27;;;;;;;3.50;1.95;;;;;;;8.58;100.00;101153.53;10413707;28;20461;-78
2022/09/30 07:27:31;;;;;;;1.65;1.23;;;;;;;9.04;100.00;101138.97;10413722;28;20069;-79
2022/09/30 07:32:33;;;;;;;2.70;1.63;;;;;;;9.21;100.00;101140.44;10392997;28;20123;-79
2022/09/30 07:37:35;;;;;;;2.10;1.92;;;;;;;9.69;100.00;101128.34;10404741;28;20041;-79
2022/09/30 07:42:43;;;;;;;3.38;2.22;;;;;;;9.81;100.00;101104.72;10407159;28;20389;-80
2022/09/30 07:47:45;;;;;;;9.60;2.28;;;;;;;10.11;100.00;101084.19;10403488;28;20034;-80
2022/09/30 07:52:55;;;;;;;4.30;2.50;;;;;;;10.62;100.00;101059.06;10406882;28;20041;-79
2022/09/30 07:57:56;;;;;;;3.75;2.42;;;;;;;10.52;100.00;101046.78;10407162;28;20075;-79
2022/09/30 08:02:58;;;;;;;2.20;1.73;;;;;;;10.89;100.00;101030.63;10405248;28;20129;-79
2022/09/30 08:07:59;;;;;;;8.73;3.88;;;;;;;11.20;100.00;101039.16;10406059;28;20145;-77
2022/09/30 08:13:01;;;;;;;2.30;1.88;;;;;;;11.69;100.00;101026.59;10404969;28;20048;-79
2022/09/30 08:18:06;;;;;;;2.88;2.55;;;;;;;11.81;100.00;101018.25;10410757;28;20033;-79
2022/09/30 08:23:09;;;;;;;4.28;2.13;;;;;;;12.10;100.00;101024.94;10404577;28;20136;-79
2022/09/30 08:28:12;;;;;;;2.38;1.63;;;;;;;12.57;100.00;101026.75;10406920;28;20103;-79
2022/09/30 08:33:13;;;;;;;3.65;2.22;;;;;;;12.10;100.00;101022.34;10401993;28;20124;-80
2022/09/30 08:38:15;;;;;;;3.78;2.08;;;;;;;12.54;100.00;101022.41;10404143;28;20034;-79
2022/09/30 08:43:29;;;;;;;3.10;1.60;;;;;;;12.98;100.00;101022.38;10405115;28;20232;-80
2022/09/30 08:48:53;;;;;;;5.25;3.88;;;;;;;13.12;100.00;101029.50;10405164;28;20068;-80
2022/09/30 08:53:58;;;;;;;4.50;2.70;;;;;;;13.69;100.00;101020.09;10412854;28;20085;-79
2022/09/30 08:59:10;;;;;;;2.58;1.88;;;;;;;13.51;100.00;101015.50;10404301;28;20132;-80
2022/09/30 09:04:13;;;;;;;5.07;2.33;;;;;;;12.92;100.00;101023.97;10410861;28;20137;-79
2022/09/30 09:09:23;;;;;;;3.38;2.13;;;;;;;13.33;100.00;101009.16;10406825;28;20457;-79
2022/09/30 09:14:45;;;;;;;1.77;1.40;;;;;;;14.40;100.00;101012.41;10408258;28;20037;-79
2022/09/30 09:20:00;;;;;;;2.53;1.70;;;;;;;14.62;100.00;101005.72;10412328;28;20140;-79
2022/09/30 09:25:03;;;;;;;2.83;1.83;;;;;;;14.16;100.00;100999.97;10407423;28;20132;-79
2022/09/30 09:30:11;;;;;;;1.60;1.45;;;;;;;14.98;100.00;100999.19;10403659;28;20107;-79
2022/09/30 09:35:24;;;;;;;2.72;1.63;;;;;;;14.63;100.00;100993.63;10409584;28;20121;-80
2022/09/30 09:40:58;;;;;;;2.33;1.65;;;;;;;14.84;100.00;100982.63;10403944;28;20121;-79
2022/09/30 09:46:26;;;;;;;4.13;2.10;;;;;;;15.39;100.00;100980.50;10404861;28;20129;-79
2022/09/30 09:51:33;;;;;;;3.20;2.15;;;;;;;15.50;100.00;100979.69;10412865;28;20037;-79
2022/09/30 09:56:36;;;;;;;1.55;1.15;;;;;;;15.32;100.00;100977.84;10420201;28;20053;-79
2022/09/30 10:01:42;;;;;;;3.75;1.98;;;;;;;15.43;100.00;100977.91;10415282;28;20497;-78
2022/09/30 10:06:58;;;;;;;2.28;1.50;;;;;;;15.68;100.00;100997.13;10398868;28;20050;-79
2022/09/30 10:12:07;;;;;;;2.10;1.85;;;;;;;15.61;100.00;100992.75;10407031;28;20076;-80
2022/09/30 10:17:32;;;;;;;2.17;1.15;;;;;;;16.48;100.00;100988.84;10409764;28;20103;-78
2022/09/30 10:22:35;;;;;;;3.75;1.85;;;;;;;15.70;100.00;101001.50;10396675;28;20409;-79
2022/09/30 10:27:47;;;;;;;2.03;1.30;;;;;;;15.50;100.00;101003.94;10415092;28;20041;-79
2022/09/30 10:32:49;;;;;;;2.33;1.10;;;;;;;15.57;100.00;101006.59;10415777;28;20056;-79
2022/09/30 10:37:52;;;;;;;1.55;1.00;;;;;;;16.00;100.00;100991.28;10396676;28;20048;-79
2022/09/30 10:42:54;;;;;;;4.55;2.45;;;;;;;16.10;100.00;100984.38;10411232;28;20124;-79
2022/09/30 10:47:59;;;;;;;3.42;1.45;;;;;;;15.83;100.00;100986.84;10422413;28;20052;-78
2022/09/30 10:53:10;;;;;;;1.02;0.93;;;;;;;16.10;100.00;100984.38;10421980;28;20137;-78
2022/09/30 10:58:29;;;;;;;3.65;1.67;;;;;;;16.73;100.00;100966.38;10412998;28;20061;-79
2022/09/30 11:03:42;;;;;;;4.25;1.75;;;;;;;16.66;100.00;100980.22;10449885;28;20056;-78
2022/09/30 11:08:54;;;;;;;2.10;1.50;;;;;;;16.09;100.00;100970.53;10453570;28;20082;-78
2022/09/30 11:14:18;;;;;;;1.60;1.23;;;;;;;16.33;100.00;100966.28;10421295;28;20056;-78
2022/09/30 11:19:43;;;;;;;2.15;1.58;;;;;;;16.52;100.00;100966.34;10415439;28;20042;-78
2022/09/30 11:24:49;;;;;;;2.50;1.83;;;;;;;16.04;100.00;100974.84;10412334;28;20508;-78
2022/09/30 11:30:16;;;;;;;2.70;1.77;;;;;;;16.38;100.00;100969.78;10408815;28;20064;-78
2022/09/30 11:35:40;;;;;;;1.95;1.42;;;;;;;15.63;100.00;100963.34;10406541;28;20118;-78
2022/09/30 11:40:51;;;;;;;2.58;1.33;;;;;;;16.28;100.00;100953.28;10396246;28;20046;-79
2022/09/30 11:46:06;;;;;;;2.63;1.95;;;;;;;16.12;100.00;100947.13;10406536;28;20497;-78
2022/09/30 11:51:17;;;;;;;1.08;0.98;;;;;;;16.92;100.00;100929.97;10411958;28;20092;-80
2022/09/30 11:56:36;;;;;;;1.48;0.93;;;;;;;16.67;100.00;100935.16;10410801;28;20585;-78
2022/09/30 12:01:44;;;;;;;3.17;1.77;;;;;;;16.36;100.00;100939.44;10405215;28;20068;-78
2022/09/30 12:06:53;;;;;;;1.67;1.45;;;;;;;16.78;100.00;100932.56;10408632;28;20481;-79
2022/09/30 12:12:06;;;;;;;2.70;1.73;;;;;;;16.49;100.00;100934.25;10406268;28;20046;-79
2022/09/30 12:17:30;;;;;;;1.27;1.17;;;;;;;16.37;100.00;100944.63;10404426;28;20416;-79
2022/09/30 12:22:38;;;;;;;2.13;1.00;;;;;;;16.30;100.00;100935.97;10403253;28;20051;-79
2022/09/30 12:27:48;;;;;;;2.33;1.73;;;;;;;16.85;100.00;100917.81;10388226;28;20076;-78
2022/09/30 12:33:12;;;;;;;2.42;1.38;;;;;;;16.18;100.00;100922.91;10409057;28;20076;-79
2022/09/30 12:38:49;;;;;;;2.53;1.25;;;;;;;16.41;100.00;100899.59;10410821;28;20148;-79
2022/09/30 12:44:22;;;;;;;1.60;1.35;;;;;;;16.31;100.00;100895.22;10408340;28;20077;-78
2022/09/30 12:49:28;;;;;;;2.42;2.15;;;;;;;16.44;100.00;100902.16;10405915;28;20034;-78
2022/09/30 12:54:33;;;;;;;1.15;1.00;;;;;;;15.74;100.00;100919.25;10409199;28;20124;-78
2022/09/30 12:59:42;;;;;;;2.20;1.60;;;;;;;16.22;100.00;100900.38;10410163;28;20472;-79
2022/09/30 13:04:44;;;;;;;1.73;1.08;;;;;;;16.55;100.00;100883.13;10408493;28;20404;-78
2022/09/30 13:09:57;;;;;;;1.75;1.42;;;;;;;16.53;100.00;100885.69;10405893;28;20197;-78
2022/09/30 13:15:29;;;;;;;2.28;1.40;;;;;;;16.64;100.00;100888.34;10404242;28;20054;-80
2022/09/30 13:20:57;;;;;;;2.20;1.70;;;;;;;16.73;100.00;100885.72;10401907;28;20633;-78
2022/09/30 13:26:00;;;;;;;3.13;1.42;;;;;;;15.91;100.00;100880.38;10408402;28;20430;-77
2022/09/30 13:31:17;;;;;;;2.47;1.67;;;;;;;16.09;100.00;100887.38;10418236;28;20160;-78
2022/09/30 13:36:49;;;;;;;1.70;1.15;;;;;;;17.04;100.00;100872.72;10415751;28;20436;-79
2022/09/30 13:42:16;;;;;;;1.42;1.05;;;;;;;16.58;100.00;100867.50;10399287;28;20136;-77
2022/09/30 13:47:32;;;;;;;0.63;0.40;;;;;;;16.16;100.00;100868.34;10406390;28;20379;-78
2022/09/30 13:52:37;;;;;;;1.30;0.80;;;;;;;15.76;100.00;100864.72;10409628;28;20692;-77
2022/09/30 13:58:03;;;;;;;0.63;0.50;;;;;;;15.82;100.00;100855.19;10406031;28;20057;-77
2022/09/30 14:03:35;;;;;;;0.77;0.60;;;;;;;15.85;100.00;100860.44;10389860;28;20241;-77
2022/09/30 14:09:00;;;;;;;0.95;0.75;;;;;;;16.21;100.00;100846.66;10399919;28;20079;-78
2022/09/30 14:14:43;;;;;;;3.50;1.40;;;;;;;16.12;100.00;100837.13;10402125;28;20132;-79
2022/09/30 14:20:12;;;;;;;0.65;0.50;;;;;;;15.69;100.00;100833.53;10391402;28;20100;-78
2022/09/30 14:25:19;;;;;;;0.32;0.22;;;;;;;15.97;100.00;100832.78;10369599;28;20475;-78
2022/09/30 14:30:23;;;;;;;0.47;0.40;;;;;;;15.89;100.00;100829.28;10396406;28;20467;-78
2022/09/30 14:35:28;;;;;;;0.20;0.10;;;;;;;15.99;100.00;100815.44;10404144;28;20064;-77
2022/09/30 14:40:33;;;;;;;0.93;0.60;;;;;;;15.92;100.00;100814.59;10409809;28;20132;-78
2022/09/30 14:45:38;;;;;;;0.40;0.40;;;;;;;15.93;100.00;100815.44;10403053;28;20056;-78
2022/09/30 14:50:50;;;;;;;0.20;0.20;;;;;;;15.91;100.00;100806.75;10400748;28;20037;-77
2022/09/30 14:55:52;;;;;;;0.73;0.22;;;;;;;16.10;100.00;100800.75;10413135;28;20041;-78
2022/09/30 15:01:09;;;;;;;0.20;0.10;;;;;;;15.53;100.00;100806.63;10409143;28;20457;-77
2022/09/30 15:06:23;;;;;;;0.20;0.20;;;;;;;15.79;100.00;100811.03;10407658;28;20049;-77
2022/09/30 15:11:26;;;;;;;0.77;0.40;;;;;;;15.89;100.00;100800.72;10405145;28;20116;-78
2022/09/30 15:16:30;;;;;;;0.17;0.17;;;;;;;15.89;100.00;100800.72;10384703;28;20121;-77
2022/09/30 15:21:32;;;;;;;0.82;0.43;;;;;;;15.59;100.00;100791.94;10404045;28;20030;-76
2022/09/30 15:26:34;;;;;;;0.28;0.20;;;;;;;15.55;100.00;100793.66;10405410;28;20045;-79
2022/09/30 15:31:43;;;;;;;0.70;0.35;;;;;;;15.42;100.00;100791.84;10422707;28;20061;-79
2022/09/30 15:36:50;;;;;;;2.95;0.30;;;;;;;15.21;100.00;100794.38;10382709;28;20052;-79
2022/09/30 15:41:52;;;;;;;0.85;0.35;;;;;;;15.09;100.00;100793.44;10384492;28;20042;-79
2022/09/30 15:47:03;;;;;;;11.75;0.95;;;;;;;15.04;100.00;100806.38;10391741;28;20056;-79
2022/09/30 15:52:29;;;;;;;0.80;0.63;;;;;;;14.79;100.00;100813.16;10369284;28;20042;-79
2022/09/30 15:57:51;;;;;;;0.32;0.25;;;;;;;14.96;100.00;100818.44;10383619;28;20061;-79
2022/09/30 16:02:53;;;;;;;0.80;0.25;;;;;;;15.35;100.00;100811.75;10380909;28;20061;-79
2022/09/30 16:08:08;;;;;;;0.45;0.22;;;;;;;15.10;100.00;100811.59;10396099;28;20496;-79
2022/09/30 16:13:14;;;;;;;0.50;0.30;;;;;;;15.26;100.00;100814.28;10399290;28;20116;-79
2022/09/30 16:18:18;;;;;;;0.95;0.57;;;;;;;15.31;100.00;100804.78;10399190;28;20523;-79
2022/09/30 16:23:35;;;;;;;0.40;0.22;;;;;;;15.08;100.00;100805.53;10395403;28;20046;-78
2022/09/30 16:28:37;;;;;;;0.15;0.15;;;;;;;14.94;100.00;100804.59;10394141;28;20080;-78
2022/09/30 16:33:42;;;;;;;0.28;0.20;;;;;;;14.82;100.00;100815.78;10395366;28;20034;-78
2022/09/30 16:38:43;;;;;;;2.13;0.10;;;;;;;14.66;100.00;100804.41;10397433;28;20121;-77
2022/09/30 16:43:45;;;;;;;0.70;0.65;;;;;;;14.36;100.00;100805.84;10395663;28;20073;-78
2022/09/30 16:48:46;;;;;;;0.70;0.45;;;;;;;14.24;100.00;100802.31;10396384;28;20113;-78
2022/09/30 16:53:49;;;;;;;0.20;0.20;;;;;;;14.11;100.00;100800.47;10396995;28;20061;-78
2022/09/30 16:58:50;;;;;;;0.20;0.20;;;;;;;13.92;100.00;100815.81;10381800;28;20045;-78
2022/09/30 17:03:56;;;;;;;0.38;0.20;;;;;;;13.82;100.00;100813.97;10407098;28;20556;-78
2022/09/30 17:09:04;;;;;;;0.25;0.15;;;;;;;13.64;100.00;100809.44;10378329;28;20038;-78
2022/09/30 17:14:06;;;;;;;0.73;0.38;;;;;;;13.47;100.00;100810.13;10385333;28;20077;-77
2022/09/30 17:19:07;;;;;;;0.52;0.52;;;;;;;13.23;100.00;100813.22;10396008;28;20446;-77
2022/09/30 17:24:09;;;;;;;0.28;0.20;;;;;;;13.23;100.00;100814.94;10389035;28;20073;-78
2022/09/30 17:29:11;;;;;;;0.10;0.10;;;;;;;13.16;100.00;100822.63;10396735;28;20121;-78
2022/09/30 17:34:33;;;;;;;0.30;0.30;;;;;;;13.01;100.00;100815.50;10393884;28;20048;-78
2022/09/30 17:39:35;;;;;;;0.00;0.00;;;;;;;12.97;100.00;100816.31;10396429;28;20072;-77
2022/09/30 17:44:37;;;;;;;0.45;0.30;;;;;;;13.07;100.00;100809.56;10398357;28;20045;-77
2022/09/30 17:49:39;;;;;;;0.20;0.20;;;;;;;12.85;100.00;100800.59;10393093;28;20130;-78
2022/09/30 17:54:41;;;;;;;0.35;0.35;;;;;;;12.76;100.00;100806.50;10394521;28;20041;-77
2022/09/30 17:59:44;;;;;;;0.00;0.00;;;;;;;12.70;100.00;100807.28;10390286;28;20076;-78
2022/09/30 18:04:46;;;;;;;1.77;0.52;;;;;;;12.54;100.00;100801.00;10388975;28;20651;-78
2022/09/30 18:09:49;;;;;;;0.43;0.40;;;;;;;12.57;100.00;100795.03;10401411;28;20037;-78
2022/09/30 18:14:52;;;;;;;1.85;0.17;;;;;;;12.43;100.00;100805.16;10410243;28;20038;-77
2022/09/30 18:19:55;;;;;;;0.70;0.20;;;;;;;12.43;100.00;100802.56;10410410;28;20073;-78
2022/09/30 18:25:22;;;;;;;0.60;0.25;;;;;;;12.44;100.00;100809.44;10398551;28;20129;-76
2022/09/30 18:30:25;;;;;;;0.05;0.03;;;;;;;12.32;100.00;100815.28;10402311;28;20301;-78
2022/09/30 18:35:32;;;;;;;0.75;0.28;;;;;;;12.26;100.00;100812.59;10407200;28;20474;-77
2022/09/30 18:40:40;;;;;;;0.38;0.30;;;;;;;12.21;100.00;100806.47;10398583;28;20077;-77
2022/09/30 18:45:42;;;;;;;0.00;0.00;;;;;;;12.34;100.00;100802.41;10401067;28;20137;-77
2022/09/30 18:50:46;;;;;;;0.35;0.30;;;;;;;12.21;100.00;100781.50;10411055;28;20048;-77
2022/09/30 18:55:48;;;;;;;0.20;0.15;;;;;;;12.14;100.00;100778.81;10414700;28;20075;-77
2022/09/30 19:00:50;;;;;;;0.35;0.20;;;;;;;12.13;100.00;100771.91;10407163;28;20073;-77
2022/09/30 19:05:52;;;;;;;0.10;0.10;;;;;;;12.36;100.00;100759.41;10429118;28;20053;-78
2022/09/30 19:10:56;;;;;;;0.43;0.25;;;;;;;12.19;100.00;100756.50;10390623;28;20048;-78
2022/09/30 19:16:03;;;;;;;0.32;0.20;;;;;;;12.13;100.00;100758.97;10402872;28;20048;-79
2022/09/30 19:21:11;;;;;;;0.32;0.30;;;;;;;12.13;100.00;100761.56;10391364;28;20049;-78
2022/09/30 19:26:14;;;;;;;0.05;0.05;;;;;;;12.10;100.00;100752.06;10393933;28;20130;-78
2022/09/30 19:31:18;;;;;;;0.10;0.10;;;;;;;12.02;100.00;100749.38;10396622;28;20046;-78
2022/09/30 19:36:19;;;;;;;0.10;0.10;;;;;;;12.10;100.00;100746.03;10401482;28;20449;-78
2022/09/30 19:41:29;;;;;;;0.38;0.30;;;;;;;12.09;100.00;100744.28;10396791;28;20109;-78
2022/09/30 19:46:31;;;;;;;;;;;;;;;12.01;100.00;100738.97;10399249;28;20069;-79
2022/09/30 19:51:32;;;;;;;0.30;0.10;;;;;;;12.19;100.00;100735.84;10383329;28;20422;-79
2022/09/30 19:56:35;;;;;;;0.88;0.40;;;;;;;12.12;100.00;100724.56;10397200;28;20128;-78
2022/09/30 20:01:37;;;;;;;0.08;0.08;;;;;;;12.11;100.00;100727.09;10404624;28;20515;-77
2022/09/30 20:06:41;;;;;;;0.00;0.00;;;;;;;12.18;100.00;100716.03;10398769;28;20045;-80
2022/09/30 20:11:44;;;;;;;0.40;0.40;;;;;;;12.25;100.00;100712.69;10380654;28;20057;-78
2022/09/30 20:16:48;;;;;;;0.63;0.38;;;;;;;12.24;100.00;100698.06;10400913;28;20136;-77
2022/09/30 20:21:51;;;;;;;0.15;0.15;;;;;;;12.24;100.00;100687.72;10392635;28;20046;-78
2022/09/30 20:26:52;;;;;;;0.55;0.52;;;;;;;12.25;100.00;100679.13;10413342;28;20124;-77
2022/09/30 20:31:54;;;;;;;0.60;0.20;;;;;;;12.34;100.00;100661.19;10413962;28;20527;-78
2022/09/30 20:36:55;;;;;;;0.30;0.30;;;;;;;12.43;100.00;100650.13;10416425;28;20492;-78
2022/09/30 20:41:57;;;;;;;0.63;0.28;;;;;;;12.85;100.00;100640.31;10418999;28;20034;-79
2022/09/30 20:47:02;;;;;;;0.15;0.10;;;;;;;12.50;100.00;100635.56;10410166;28;20404;-79
2022/09/30 20:52:04;;;;;;;0.22;0.10;;;;;;;12.47;100.00;100632.94;10429426;28;20086;-79
2022/09/30 20:57:06;;;;;;;0.25;0.25;;;;;;;12.52;100.00;100618.38;10418590;28;20448;-78
2022/09/30 21:02:12;;;;;;;0.30;0.30;;;;;;;12.61;100.00;100610.75;10414457;28;20072;-78
2022/09/30 21:07:14;;;;;;;0.52;0.47;;;;;;;12.64;100.00;100600.44;10412398;28;20136;-78
2022/09/30 21:12:15;;;;;;;0.20;0.10;;;;;;;12.67;100.00;100600.47;10413988;28;20053;-78
2022/09/30 21:17:18;;;;;;;0.30;0.22;;;;;;;12.65;100.00;100586.66;10419772;28;20481;-78
2022/09/30 21:22:19;;;;;;;0.43;0.35;;;;;;;12.77;100.00;100567.84;10413454;28;20511;-78
2022/09/30 21:27:21;;;;;;;0.68;0.40;;;;;;;12.92;100.00;100567.13;10413624;28;20049;-77
2022/09/30 21:32:23;;;;;;;0.28;0.20;;;;;;;12.81;100.00;100567.03;10413143;28;20501;-78
2022/09/30 21:37:24;;;;;;;0.82;0.32;;;;;;;12.87;100.00;100561.06;10414016;28;20493;-77
2022/09/30 21:42:26;;;;;;;0.10;0.10;;;;;;;12.86;100.00;100559.31;10412895;28;20052;-79
2022/09/30 21:47:28;;;;;;;0.20;0.20;;;;;;;12.84;100.00;100566.22;10419326;28;20485;-79
2022/09/30 21:52:29;;;;;;;0.45;0.38;;;;;;;12.99;100.00;100561.19;10462401;28;20045;-78
2022/09/30 21:57:33;;;;;;;0.32;0.30;;;;;;;12.92;100.00;100556.78;10423227;28;20481;-78
2022/09/30 22:02:35;;;;;;;0.93;0.43;;;;;;;12.96;100.00;100548.25;10413325;28;20126;-78
2022/09/30 22:07:37;;;;;;;0.90;0.68;;;;;;;12.94;100.00;100552.50;10418316;28;20053;-78
2022/09/30 22:12:39;;;;;;;0.08;0.08;;;;;;;12.87;100.00;100535.19;10427829;28;20392;-78
2022/09/30 22:17:40;;;;;;;0.90;0.28;;;;;;;12.89;100.00;100543.84;10421500;28;20140;-79
2022/09/30 22:22:49;;;;;;;0.10;0.10;;;;;;;12.89;100.00;100528.34;10421192;28;20120;-77
2022/09/30 22:27:51;;;;;;;1.93;0.50;;;;;;;12.84;100.00;100524.84;10420432;28;20080;-79
2022/09/30 22:38:13;;;;;;;0.43;0.25;;;;;;;12.83;100.00;100517.94;10420148;28;20041;-78
2022/09/30 22:38:15;;;;;;;0.55;0.55;;;;;;;12.75;100.00;100517.00;10423173;28;20069;-78
2022/09/30 22:43:17;;;;;;;0.28;0.28;;;;;;;12.80;100.00;100497.22;10426689;28;20045;-79
2022/09/30 22:48:19;;;;;;;1.40;0.30;;;;;;;12.72;100.00;100494.56;10407540;28;20053;-80
2022/09/30 22:53:22;;;;;;;0.00;0.00;;;;;;;12.79;100.00;100491.19;10405844;28;20041;-79
2022/09/30 22:58:23;;;;;;;0.45;0.40;;;;;;;12.83;100.00;100482.59;10417525;28;20120;-78
2022/09/30 23:03:25;;;;;;;0.38;0.30;;;;;;;12.75;100.00;100462.72;10408773;28;20128;-80
2022/09/30 23:08:32;;;;;;;0.95;0.25;;;;;;;12.67;100.00;100466.09;10417917;28;20051;-78
2022/09/30 23:13:34;;;;;;;0.70;0.35;;;;;;;12.53;100.00;100467.66;10418318;28;20076;-78
2022/09/30 23:18:36;;;;;;;0.20;0.15;;;;;;;12.37;100.00;100462.31;10416830;28;20469;-78
2022/09/30 23:23:38;;;;;;;0.35;0.10;;;;;;;12.31;100.00;100477.75;10415920;28;20048;-78
2022/09/30 23:28:40;;;;;;;0.10;0.10;;;;;;;12.01;100.00;100479.09;10399080;28;20088;-79